Time;durP1;ratioP1;P1;durP2;ratioP2;P2;SDS_P1;SDS_P2;PMS_P1;PMS_P2;Temp;Humidity;BMP_temperature;BMP_pressure;BME280_temperature;BME280_humidity;BME280_pressure;Samples;Min_cycle;Max_cycle;Signal;HPM_P1;HPM_P2
2021/04/12 00:00:21;;;;;;;33.30;19.42;;;;;;;11.07;34.74;101364.50;5011641;28;20555;-66
2021/04/12 00:03:07;;;;;;;36.00;19.50;;;;;;;10.95;34.49;101360.69;5008342;28;20363;-65
2021/04/12 00:05:32;;;;;;;35.72;20.25;;;;;;;10.95;34.40;101373.22;5010794;28;20566;-62
2021/04/12 00:08:19;;;;;;;35.03;19.88;;;;;;;10.98;34.47;101371.25;5010716;28;20037;-65
2021/04/12 00:11:09;;;;;;;38.03;20.17;;;;;;;10.93;34.71;101376.00;5010886;28;20044;-62
2021/04/12 00:14:05;;;;;;;37.33;20.90;;;;;;;10.98;34.62;101373.91;5010332;28;20087;-63
2021/04/12 00:16:39;;;;;;;37.22;20.17;;;;;;;10.83;35.07;101364.94;5010537;28;20065;-63
2021/04/12 00:19:13;;;;;;;38.65;21.17;;;;;;;10.97;35.21;101393.63;5010128;28;20093;-65
2021/04/12 00:21:46;;;;;;;40.63;21.20;;;;;;;11.00;34.99;101387.25;5012658;28;20050;-66
2021/04/12 00:24:36;;;;;;;41.97;21.20;;;;;;;11.01;34.69;101384.47;5012884;28;20037;-65
2021/04/12 00:27:04;;;;;;;41.63;21.02;;;;;;;11.06;34.74;101384.22;5012578;28;20118;-65
2021/04/12 00:29:35;;;;;;;35.22;21.23;;;;;;;11.09;34.93;101378.66;5012478;28;20049;-65
2021/04/12 00:32:26;;;;;;;41.03;21.20;;;;;;;11.08;34.79;101384.97;5012470;28;20159;-66
2021/04/12 00:35:09;;;;;;;33.88;20.33;;;;;;;10.65;35.56;101331.16;5012270;28;20057;-65
2021/04/12 00:37:47;;;;;;;39.63;21.63;;;;;;;11.02;35.20;101396.91;5027268;28;20065;-64
2021/04/12 00:40:33;;;;;;;40.15;20.38;;;;;;;10.96;35.29;101391.91;5012385;28;20041;-65
2021/04/12 00:43:13;;;;;;;47.80;20.58;;;;;;;10.96;35.81;101409.78;4998623;28;20042;-65
2021/04/12 00:46:03;;;;;;;41.55;20.80;;;;;;;10.93;35.39;101397.44;4992275;28;20466;-66
2021/04/12 00:48:37;;;;;;;33.92;19.63;;;;;;;10.93;35.17;101397.44;4992409;28;20053;-65
2021/04/12 00:51:18;;;;;;;40.42;20.45;;;;;;;10.97;35.19;101403.47;4991097;28;20064;-67
2021/04/12 00:53:56;;;;;;;37.60;20.02;;;;;;;10.86;35.44;101396.06;4992728;28;20045;-66
2021/04/12 00:56:27;;;;;;;38.70;20.90;;;;;;;10.94;35.22;101412.56;4992321;28;20101;-65
2021/04/12 00:59:22;;;;;;;38.10;21.08;;;;;;;10.97;35.01;101399.00;4992456;28;20395;-66
2021/04/12 01:01:59;;;;;;;36.80;21.50;;;;;;;11.03;34.80;101409.34;4994430;28;20057;-64
2021/04/12 01:04:58;;;;;;;41.22;22.15;;;;;;;11.10;35.08;101411.72;5008523;28;20449;-65
2021/04/12 01:07:26;;;;;;;38.00;21.13;;;;;;;11.13;34.29;101416.88;5009349;28;20025;-62
2021/04/12 01:10:16;;;;;;;36.65;21.17;;;;;;;11.09;34.92;101415.31;5009617;28;20068;-62
2021/04/12 01:13:06;;;;;;;44.05;21.88;;;;;;;11.06;35.00;101421.72;5009183;28;20046;-63
2021/04/12 01:15:35;;;;;;;37.90;20.85;;;;;;;10.96;35.54;101426.75;5008348;28;20069;-63
2021/04/12 01:18:38;;;;;;;41.33;22.50;;;;;;;10.95;35.56;101425.00;5006619;28;20057;-60
2021/04/12 01:21:45;;;;;;;37.58;21.85;;;;;;;10.93;35.25;101423.38;5005504;28;20052;-63
2021/04/12 01:24:29;;;;;;;;;;;;;;;10.96;35.09;101415.16;5021877;28;20089;-63
2021/04/12 01:27:06;;;;;;;36.00;20.95;;;;;;;10.84;35.47;101414.03;5009072;28;19956;-63
2021/04/12 01:29:52;;;;;;;39.97;21.60;;;;;;;10.83;35.53;101412.28;5009258;28;20058;-62
2021/04/12 01:32:44;;;;;;;44.17;22.50;;;;;;;10.82;35.54;101416.81;5009953;28;20573;-64
2021/04/12 01:35:25;;;;;;;42.95;21.40;;;;;;;10.75;35.77;101402.88;5006797;28;20923;-63
2021/04/12 01:38:21;;;;;;;40.63;21.52;;;;;;;10.73;35.84;101401.22;5008783;28;20088;-61
2021/04/12 01:41:12;;;;;;;39.95;21.45;;;;;;;10.30;36.08;101345.53;5009332;28;20056;-65
2021/04/12 01:44:18;;;;;;;39.20;20.73;;;;;;;10.71;36.40;101397.78;5008815;28;20417;-65
2021/04/12 01:47:16;;;;;;;47.95;22.55;;;;;;;10.68;36.11;101397.94;5008851;28;20167;-60
2021/04/12 01:49:44;;;;;;;44.13;21.55;;;;;;;10.65;35.98;101399.00;5006826;28;20660;-64
2021/04/12 01:52:42;;;;;;;39.53;21.13;;;;;;;10.63;35.65;101401.75;5010805;28;20046;-63
2021/04/12 01:55:31;;;;;;;43.80;21.85;;;;;;;10.69;35.71;101405.91;5010530;28;20042;-64
2021/04/12 01:58:12;;;;;;;39.80;20.65;;;;;;;10.62;36.34;101400.03;5010980;28;20132;-64
2021/04/12 02:00:47;;;;;;;36.05;21.17;;;;;;;10.59;36.22;101399.31;5010577;28;20038;-63
2021/04/12 02:03:28;;;;;;;47.77;21.03;;;;;;;10.46;36.83;101394.66;5010662;28;20472;-64
2021/04/12 02:06:32;;;;;;;36.17;20.98;;;;;;;10.49;36.66;101409.72;5010662;28;20273;-64
2021/04/12 02:09:23;;;;;;;34.80;20.95;;;;;;;10.44;36.52;101407.28;5008108;28;20486;-63
2021/04/12 02:12:27;;;;;;;38.78;20.40;;;;;;;10.41;36.72;101411.91;5010946;28;20072;-64
2021/04/12 02:15:02;;;;;;;41.08;20.55;;;;;;;10.33;36.87;101414.97;5010274;28;20465;-62
2021/04/12 02:17:48;;;;;;;39.17;20.60;;;;;;;10.33;36.59;101414.97;5010607;28;20568;-66
2021/04/12 02:20:39;;;;;;;43.70;21.47;;;;;;;10.33;36.48;101415.84;5009609;28;20053;-63
2021/04/12 02:23:32;;;;;;;43.22;21.52;;;;;;;10.39;36.62;101425.38;5027862;28;20053;-62
2021/04/12 02:26:27;;;;;;;45.40;21.23;;;;;;;10.40;36.50;101424.47;5010371;28;20490;-62
2021/04/12 02:29:18;;;;;;;38.63;20.58;;;;;;;10.34;36.80;101427.41;5023715;28;20089;-59
2021/04/12 02:31:50;;;;;;;42.33;21.33;;;;;;;10.27;36.36;101420.66;5010735;28;20148;-63
2021/04/12 02:34:25;;;;;;;42.30;23.27;;;;;;;10.27;36.52;101434.06;5010422;28;20458;-63
2021/04/12 02:37:15;;;;;;;36.40;21.47;;;;;;;10.24;36.70;101428.88;5010849;28;20481;-63
2021/04/12 02:40:14;;;;;;;41.20;22.95;;;;;;;10.28;36.29;101425.97;5010272;28;20777;-64
2021/04/12 02:42:56;;;;;;;43.28;22.65;;;;;;;10.37;36.02;101429.94;5009048;28;20034;-63
2021/04/12 02:45:46;;;;;;;36.40;22.60;;;;;;;10.40;36.05;101426.22;5010537;28;20042;-64
2021/04/12 02:48:38;;;;;;;37.40;22.33;;;;;;;10.43;36.39;101431.44;5009082;28;20465;-64
2021/04/12 02:51:41;;;;;;;43.00;22.58;;;;;;;10.44;36.04;101422.47;5025511;28;20033;-64
2021/04/12 02:54:13;;;;;;;39.08;22.13;;;;;;;10.41;36.00;101422.63;5009091;28;20068;-64
2021/04/12 02:56:44;;;;;;;40.30;22.27;;;;;;;10.43;36.50;101420.72;5009108;28;20120;-64
2021/04/12 02:59:40;;;;;;;36.45;21.75;;;;;;;10.54;35.66;101426.38;5010408;28;20133;-64
2021/04/12 03:02:43;;;;;;;44.13;23.17;;;;;;;10.61;35.42;101418.88;5010111;28;20133;-63
2021/04/12 03:05:26;;;;;;;47.45;22.95;;;;;;;10.66;35.36;101421.28;5006420;28;20030;-64
2021/04/12 03:07:57;;;;;;;42.80;22.58;;;;;;;10.73;35.46;101422.66;5007945;28;20091;-62
2021/04/12 03:11:10;;;;;;;41.70;22.23;;;;;;;10.82;35.02;101421.28;5008877;28;20096;-64
2021/04/12 03:13:44;;;;;;;41.72;22.35;;;;;;;10.89;34.98;101433.41;5010014;28;20040;-65
2021/04/12 03:16:27;;;;;;;41.42;23.27;;;;;;;10.89;35.33;101431.56;5011438;28;20141;-63
2021/04/12 03:19:23;;;;;;;41.47;21.42;;;;;;;11.04;35.22;101437.88;5011151;28;20113;-64
2021/04/12 03:22:10;;;;;;;40.90;21.35;;;;;;;11.11;35.02;101430.38;5005696;28;20049;-64
2021/04/12 03:24:36;;;;;;;36.08;20.77;;;;;;;11.18;34.60;101429.06;5013716;28;20041;-64
2021/04/12 03:27:18;;;;;;;43.97;22.75;;;;;;;11.32;34.43;101444.34;5013558;28;20049;-63
2021/04/12 03:30:05;;;;;;;35.35;21.73;;;;;;;11.51;34.08;101435.22;5013614;28;20164;-64
2021/04/12 03:32:55;;;;;;;45.63;22.67;;;;;;;11.68;33.33;101441.41;5013245;28;20512;-63
2021/04/12 03:35:52;;;;;;;43.05;21.85;;;;;;;11.91;32.80;101442.72;5013633;28;20050;-63
2021/04/12 03:38:30;;;;;;;38.80;21.92;;;;;;;12.03;32.27;101433.97;5013272;28;20044;-64
2021/04/12 03:41:09;;;;;;;40.58;22.23;;;;;;;12.28;32.01;101434.25;5013835;28;20114;-64
2021/04/12 03:44:01;;;;;;;38.17;20.13;;;;;;;12.64;31.35;101432.91;5028469;28;20030;-64
2021/04/12 03:46:53;;;;;;;42.13;21.00;;;;;;;13.11;30.86;101429.94;5013108;28;20461;-56
2021/04/12 03:49:37;;;;;;;42.03;20.17;;;;;;;13.65;29.31;101418.31;5013408;28;20041;-65
2021/04/12 03:52:21;;;;;;;37.10;19.55;;;;;;;13.95;28.81;101422.53;5011831;28;20529;-63
2021/04/12 03:54:58;;;;;;;33.78;18.80;;;;;;;14.14;28.28;101418.56;5013207;28;20062;-65
2021/04/12 03:57:54;;;;;;;38.92;18.13;;;;;;;14.43;27.72;101421.88;5013201;28;20137;-63
2021/04/12 04:00:38;;;;;;;36.37;19.47;;;;;;;14.71;27.03;101427.13;5013116;28;20025;-64
2021/04/12 04:03:24;;;;;;;33.25;18.40;;;;;;;14.92;26.80;101428.28;5012591;28;20292;-64
2021/04/12 04:06:08;;;;;;;29.73;17.58;;;;;;;15.33;26.21;101428.00;5012704;28;20041;-62
2021/04/12 04:08:48;;;;;;;40.85;19.00;;;;;;;15.38;25.63;101420.41;5013132;28;20061;-62
2021/04/12 04:11:40;;;;;;;40.97;18.00;;;;;;;15.79;25.28;101434.44;5012830;28;20033;-62
2021/04/12 04:14:11;;;;;;;36.63;19.15;;;;;;;16.01;24.52;101430.94;5011143;28;20038;-61
2021/04/12 04:17:08;;;;;;;34.95;17.77;;;;;;;16.38;24.04;101426.31;5012400;28;20045;-64
2021/04/12 04:19:56;;;;;;;38.97;18.70;;;;;;;16.87;23.86;101438.56;5011477;28;20085;-65
2021/04/12 04:22:56;;;;;;;37.60;18.27;;;;;;;17.31;22.70;101441.31;4996808;28;20050;-64
2021/04/12 04:25:55;;;;;;;33.60;15.55;;;;;;;18.03;21.75;101441.63;4997477;28;20030;-62
2021/04/12 04:28:47;;;;;;;29.65;16.20;;;;;;;18.40;20.73;101444.81;5010146;28;20144;-62
2021/04/12 04:31:39;;;;;;;27.77;15.25;;;;;;;18.89;20.22;101442.28;5009719;28;20046;-59
2021/04/12 04:34:30;;;;;;;31.08;16.38;;;;;;;19.92;19.27;101448.25;5009814;28;20589;-62
2021/04/12 04:37:29;;;;;;;29.33;16.35;;;;;;;20.56;18.78;101435.91;5009896;28;20045;-63
2021/04/12 04:40:32;;;;;;;31.08;15.43;;;;;;;21.41;17.80;101438.41;5009491;28;20038;-65
2021/04/12 04:43:22;;;;;;;29.02;16.45;;;;;;;22.32;17.01;101427.31;5011958;28;20038;-63
2021/04/12 04:46:12;;;;;;;25.38;15.82;;;;;;;22.88;15.53;101427.78;5012069;28;20044;-64
2021/04/12 04:48:52;;;;;;;28.73;15.00;;;;;;;23.60;15.15;101415.41;5011965;28;20042;-63
2021/04/12 04:51:39;;;;;;;26.77;15.25;;;;;;;25.05;14.35;101424.59;5011542;28;20038;-63
2021/04/12 04:54:24;;;;;;;25.83;15.15;;;;;;;25.57;13.49;101426.84;5011728;28;20580;-65
2021/04/12 04:57:08;;;;;;;29.10;15.45;;;;;;;26.34;12.87;101435.88;5011257;28;20098;-64
2021/04/12 04:59:55;;;;;;;23.95;14.18;;;;;;;26.59;11.99;101364.19;5009530;28;20045;-63
2021/04/12 05:02:45;;;;;;;21.63;12.75;;;;;;;27.59;10.83;101419.41;5005716;28;20048;-64
2021/04/12 05:05:24;;;;;;;24.63;13.50;;;;;;;28.41;11.15;101418.06;4995155;28;20080;-62
2021/04/12 05:07:49;;;;;;;18.00;12.13;;;;;;;28.77;10.53;101422.47;5010230;28;20068;-63
2021/04/12 05:10:33;;;;;;;20.00;12.25;;;;;;;28.55;9.41;101424.50;5011742;28;20069;-63
2021/04/12 05:13:24;;;;;;;18.20;11.43;;;;;;;28.94;10.21;101417.47;5011492;28;20044;-63
2021/04/12 05:16:17;;;;;;;19.05;10.45;;;;;;;29.32;9.45;101419.66;5011380;28;20029;-65
2021/04/12 05:18:51;;;;;;;22.08;10.32;;;;;;;29.61;9.04;101422.28;5010080;28;20470;-66
2021/04/12 05:22:11;;;;;;;19.70;9.35;;;;;;;30.70;9.00;101413.59;5010627;28;20030;-68
2021/04/12 05:24:56;;;;;;;17.05;8.43;;;;;;;29.93;8.10;101430.75;5047993;28;20041;-62
2021/04/12 05:27:47;;;;;;;18.00;7.57;;;;;;;29.61;8.19;101447.09;5011199;28;20537;-64
2021/04/12 05:30:30;;;;;;;16.23;7.47;;;;;;;28.46;8.35;101424.69;5010591;28;20064;-62
2021/04/12 05:33:19;;;;;;;9.82;6.85;;;;;;;28.46;8.56;101421.06;4991189;28;20432;-62
2021/04/12 05:36:22;;;;;;;15.23;8.60;;;;;;;28.52;9.07;101423.00;4990948;28;20038;-62
2021/04/12 05:39:26;;;;;;;14.57;8.10;;;;;;;28.34;8.87;101418.91;4991029;28;20076;-62
2021/04/12 05:42:31;;;;;;;14.48;8.65;;;;;;;29.09;8.61;101422.81;4991262;28;20048;-62
2021/04/12 05:45:10;;;;;;;14.13;10.10;;;;;;;29.46;8.05;101423.31;4991244;28;20506;-62
2021/04/12 05:48:37;;;;;;;18.40;9.52;;;;;;;30.20;7.79;101416.91;4990642;28;20550;-62
2021/04/12 05:51:17;;;;;;;15.23;9.25;;;;;;;31.20;7.66;101409.28;4968937;28;20169;-64
2021/04/12 05:54:01;;;;;;;18.52;9.68;;;;;;;31.21;7.17;101405.44;4969305;28;20482;-63
2021/04/12 05:56:55;;;;;;;16.02;9.77;;;;;;;31.59;7.43;101406.44;4984096;28;20117;-61
2021/04/12 06:00:05;;;;;;;19.98;8.82;;;;;;;31.59;7.13;101407.28;4990647;28;20046;-60
2021/04/12 06:02:50;;;;;;;17.10;9.30;;;;;;;31.91;6.58;101375.91;5010734;28;20625;-63
2021/04/12 06:05:21;;;;;;;13.93;9.10;;;;;;;31.87;6.57;101397.69;4990716;28;20037;-65
2021/04/12 06:08:20;;;;;;;13.63;9.32;;;;;;;32.65;6.54;101397.25;5008111;28;20044;-61
2021/04/12 06:11:11;;;;;;;16.00;9.73;;;;;;;32.48;6.30;101356.28;5007845;28;20026;-62
2021/04/12 06:14:26;;;;;;;15.70;8.73;;;;;;;33.32;6.41;101406.53;5005506;28;20417;-62
2021/04/12 06:17:37;;;;;;;19.25;8.50;;;;;;;32.58;6.19;101410.34;5007345;28;20095;-64
2021/04/12 06:20:27;;;;;;;15.27;8.82;;;;;;;32.52;6.61;101395.50;5018838;28;20052;-67
2021/04/12 06:23:34;;;;;;;22.15;8.18;;;;;;;32.03;6.54;101364.91;4991239;28;20553;-64
2021/04/12 06:26:22;;;;;;;14.27;8.80;;;;;;;31.90;6.61;101388.91;4984251;28;20043;-61
2021/04/12 06:28:58;;;;;;;17.55;8.90;;;;;;;31.97;6.53;101401.84;4989579;28;20072;-63
2021/04/12 06:32:00;;;;;;;16.10;8.30;;;;;;;32.38;6.12;101391.19;4990722;28;20074;-61
2021/04/12 06:34:34;;;;;;;16.63;9.20;;;;;;;31.42;6.68;101387.59;4990680;28;20085;-63
2021/04/12 06:37:17;;;;;;;14.45;9.40;;;;;;;31.18;6.66;101379.03;4990760;28;20042;-62
2021/04/12 06:40:02;;;;;;;16.35;8.25;;;;;;;31.13;7.22;101384.41;4990866;28;20081;-60
2021/04/12 06:42:46;;;;;;;18.30;9.55;;;;;;;31.04;7.34;101381.03;5009329;28;20048;-66
2021/04/12 06:45:37;;;;;;;18.83;8.88;;;;;;;31.00;7.39;101393.63;5008610;28;20038;-63
2021/04/12 06:48:17;;;;;;;16.85;9.05;;;;;;;30.03;7.75;101370.44;5012002;28;20124;-68
2021/04/12 06:51:13;;;;;;;12.50;8.10;;;;;;;30.55;7.63;101412.97;5014390;28;20120;-66
2021/04/12 06:54:19;;;;;;;18.80;8.57;;;;;;;29.80;7.88;101404.00;5013734;28;20057;-64
2021/04/12 06:57:03;;;;;;;12.57;7.83;;;;;;;29.03;8.40;101394.16;5000784;28;20042;-64
2021/04/12 06:59:53;;;;;;;12.52;7.70;;;;;;;28.49;8.79;101398.63;5014050;28;20264;-70
2021/04/12 07:02:54;;;;;;;11.63;7.30;;;;;;;27.84;8.88;101366.66;5013756;28;20106;-67
2021/04/12 07:05:32;;;;;;;12.02;7.68;;;;;;;27.89;8.93;101369.66;5012180;28;20412;-67
2021/04/12 07:08:23;;;;;;;18.15;7.50;;;;;;;28.04;9.13;101365.94;5014062;28;20045;-66
2021/04/12 07:11:03;;;;;;;20.20;7.53;;;;;;;28.37;9.18;101368.03;4996049;28;20035;-66
2021/04/12 07:14:03;;;;;;;12.15;7.50;;;;;;;28.12;8.69;101385.03;5011139;28;20061;-66
2021/04/12 07:16:50;;;;;;;12.50;7.18;;;;;;;27.49;9.10;101380.31;5010716;28;20034;-67
2021/04/12 07:19:15;;;;;;;10.70;6.88;;;;;;;27.47;8.90;101377.78;5009234;28;20517;-69
2021/04/12 07:22:18;;;;;;;13.02;7.22;;;;;;;27.57;9.43;101399.50;5010629;28;20049;-66
2021/04/12 07:25:04;;;;;;;12.40;6.45;;;;;;;27.23;9.05;101370.78;5010604;28;20163;-65
2021/04/12 07:28:22;;;;;;;11.77;6.90;;;;;;;27.46;9.35;101375.22;4992624;28;20084;-65
2021/04/12 07:31:06;;;;;;;12.95;6.22;;;;;;;27.65;9.22;101377.31;5003839;28;20050;-66
2021/04/12 07:33:56;;;;;;;12.95;5.90;;;;;;;27.73;9.25;101436.00;5012107;28;20593;-67
2021/04/12 07:37:12;;;;;;;14.48;6.68;;;;;;;27.30;9.17;101360.72;5012724;28;20030;-67
2021/04/12 07:39:53;;;;;;;11.50;6.65;;;;;;;27.56;9.01;101364.78;5013381;28;20041;-68
2021/04/12 07:42:36;;;;;;;9.50;6.50;;;;;;;27.88;8.86;101334.94;5012823;28;20045;-69
2021/04/12 07:45:17;;;;;;;14.77;6.45;;;;;;;27.98;9.30;101333.75;5013031;28;20074;-69
2021/04/12 07:47:46;;;;;;;12.27;6.72;;;;;;;28.03;8.89;101347.75;5012476;28;20043;-67
2021/04/12 07:50:23;;;;;;;13.80;6.55;;;;;;;27.92;9.07;101333.47;4998238;28;20053;-65
2021/04/12 07:53:26;;;;;;;14.02;6.30;;;;;;;28.01;8.71;101322.31;4992900;28;20038;-69
2021/04/12 07:56:00;;;;;;;10.07;5.95;;;;;;;27.76;9.16;101325.56;5003365;28;20038;-67
2021/04/12 07:58:50;;;;;;;12.07;6.30;;;;;;;27.37;9.44;101330.53;4995412;28;20034;-69
2021/04/12 08:01:46;;;;;;;12.65;5.57;;;;;;;27.18;9.13;101334.78;5007446;28;20050;-67
2021/04/12 08:04:30;;;;;;;18.27;5.70;;;;;;;25.90;9.46;101323.13;5006660;28;20025;-67
2021/04/12 08:07:32;;;;;;;9.80;5.35;;;;;;;24.70;10.58;101336.44;5006625;28;20041;-69
2021/04/12 08:10:54;;;;;;;15.85;5.32;;;;;;;23.50;11.25;101327.28;5011562;28;20041;-68
2021/04/12 08:13:35;;;;;;;12.45;5.28;;;;;;;22.07;11.88;101324.41;5024998;28;20048;-67
2021/04/12 08:16:26;;;;;;;9.82;5.13;;;;;;;21.63;12.33;101317.13;5012273;28;20060;-64
2021/04/12 08:19:13;;;;;;;12.65;5.18;;;;;;;20.94;13.23;101327.81;5011300;28;20042;-60
2021/04/12 08:22:05;;;;;;;9.68;5.35;;;;;;;20.48;13.70;101327.81;5011050;28;20133;-64
2021/04/12 08:25:07;;;;;;;13.50;5.43;;;;;;;20.64;13.60;101330.72;5010413;28;20057;-62
2021/04/12 08:28:14;;;;;;;12.55;4.68;;;;;;;20.94;13.26;101352.31;5010339;28;20521;-65
2021/04/12 08:31:04;;;;;;;7.45;4.88;;;;;;;20.60;13.62;101317.56;5012759;28;20038;-71
2021/04/12 08:34:04;;;;;;;18.92;4.72;;;;;;;20.30;13.85;101323.19;4997504;28;20142;-66
2021/04/12 08:37:07;;;;;;;12.15;5.03;;;;;;;20.11;14.17;101321.41;4992678;28;20437;-62
2021/04/12 08:39:38;;;;;;;6.35;4.80;;;;;;;20.06;14.16;101315.59;5010963;28;20038;-65
2021/04/12 08:42:28;;;;;;;10.07;4.25;;;;;;;20.01;14.39;101323.31;5002680;28;20030;-68
2021/04/12 08:45:12;;;;;;;11.35;4.63;;;;;;;19.82;14.45;101288.88;5008484;28;20038;-63
2021/04/12 08:47:43;;;;;;;12.35;4.20;;;;;;;19.72;14.16;101294.34;5006349;28;20046;-61
2021/04/12 08:50:22;;;;;;;12.10;4.07;;;;;;;20.03;13.99;101313.16;4989803;28;20155;-69
2021/04/12 08:52:50;;;;;;;16.48;4.35;;;;;;;19.76;14.11;101288.47;5006076;28;20049;-66
2021/04/12 08:55:36;;;;;;;6.50;3.85;;;;;;;19.85;14.34;101297.59;5002490;28;20065;-63
2021/04/12 08:58:23;;;;;;;12.85;4.30;;;;;;;19.82;14.22;101313.34;5007702;28;20428;-61
2021/04/12 09:01:17;;;;;;;13.43;4.20;;;;;;;19.69;13.98;101319.09;5003849;28;20044;-67
2021/04/12 09:04:20;;;;;;;8.65;3.97;;;;;;;19.78;14.24;101315.53;5004005;28;20096;-60
2021/04/12 09:06:58;;;;;;;7.50;3.72;;;;;;;19.58;14.18;101295.69;5005349;28;20068;-67
2021/04/12 09:09:50;;;;;;;9.93;3.78;;;;;;;19.42;14.45;101308.03;4999587;28;20042;-60
2021/04/12 09:12:40;;;;;;;11.40;3.67;;;;;;;19.42;14.43;101309.88;5007987;28;20128;-64
2021/04/12 09:15:15;;;;;;;6.95;4.20;;;;;;;19.34;14.52;101292.47;5011255;28;20478;-64
2021/04/12 09:17:54;;;;;;;8.00;3.53;;;;;;;19.36;14.48;101297.72;4994605;28;20634;-68
2021/04/12 09:20:57;;;;;;;6.50;3.33;;;;;;;19.45;14.21;101299.59;5010092;28;20045;-63
2021/04/12 09:23:43;;;;;;;8.35;3.60;;;;;;;19.15;14.53;101274.31;5009649;28;20046;-63
2021/04/12 09:26:35;;;;;;;6.43;3.65;;;;;;;19.29;14.51;101278.47;5009400;28;20044;-60
2021/04/12 09:29:34;;;;;;;8.38;3.85;;;;;;;19.39;14.52;101269.44;5008106;28;20072;-65
2021/04/12 09:31:59;;;;;;;12.90;3.78;;;;;;;19.72;14.15;101267.19;5008229;28;20477;-69
2021/04/12 09:34:30;;;;;;;7.07;3.58;;;;;;;19.67;14.19;101261.34;5010116;28;20045;-65
2021/04/12 09:37:24;;;;;;;12.77;3.78;;;;;;;19.86;13.93;101274.84;5008370;28;20026;-65
2021/04/12 09:40:11;;;;;;;8.15;3.97;;;;;;;19.82;14.21;101270.72;5000998;28;20419;-63
2021/04/12 09:42:55;;;;;;;8.85;3.50;;;;;;;19.80;14.14;101281.75;5000449;28;20064;-67
2021/04/12 09:45:45;;;;;;;13.20;3.38;;;;;;;19.65;14.13;101284.09;4997127;28;20456;-63
2021/04/12 09:48:38;;;;;;;15.23;3.72;;;;;;;19.69;14.10;101287.38;5010644;28;20037;-60
2021/04/12 09:51:34;;;;;;;8.48;3.38;;;;;;;19.38;13.71;101213.41;5000462;28;20144;-56
2021/04/12 09:54:37;;;;;;;8.80;3.15;;;;;;;19.51;13.78;101238.38;4996620;28;20053;-63
2021/04/12 09:57:41;;;;;;;6.07;3.20;;;;;;;19.60;13.80;101240.22;5010674;28;20133;-68
2021/04/12 10:00:36;;;;;;;9.25;3.05;;;;;;;19.79;13.47;101219.41;5020365;28;20054;-65
2021/04/12 10:03:52;;;;;;;9.93;3.45;;;;;;;19.85;13.25;101213.34;5011225;28;20046;-69
2021/04/12 10:06:27;;;;;;;8.85;2.75;;;;;;;19.72;13.63;101220.97;5005077;28;20091;-67
2021/04/12 10:09:28;;;;;;;4.63;3.20;;;;;;;19.19;13.81;101160.88;5002794;28;20049;-67
2021/04/12 10:12:09;;;;;;;9.45;3.42;;;;;;;19.20;14.08;101201.47;5008432;28;20335;-68
2021/04/12 10:14:46;;;;;;;5.05;2.78;;;;;;;18.92;14.48;101176.03;5008653;28;20961;-68
2021/04/12 10:17:36;;;;;;;7.25;3.20;;;;;;;18.86;14.54;101220.06;5002875;28;20060;-69
2021/04/12 10:20:07;;;;;;;6.50;3.13;;;;;;;18.62;14.64;101199.66;5006387;28;20038;-69
2021/04/12 10:22:47;;;;;;;4.35;2.63;;;;;;;18.57;14.53;101177.53;5008217;28;20045;-67
2021/04/12 10:25:27;;;;;;;6.85;3.22;;;;;;;18.08;14.56;101110.56;5002769;28;20037;-73
2021/04/12 10:28:07;;;;;;;9.18;3.13;;;;;;;18.50;14.46;101191.63;4992614;28;20066;-62
2021/04/12 10:30:43;;;;;;;11.20;3.30;;;;;;;18.60;14.73;101171.81;4998736;28;20072;-70
2021/04/12 10:33:16;;;;;;;7.13;3.30;;;;;;;18.79;14.68;101147.34;5009180;28;20076;-72
2021/04/12 10:35:50;;;;;;;5.70;2.85;;;;;;;19.20;14.41;101165.28;4993330;28;20040;-67
2021/04/12 10:38:31;;;;;;;3.90;3.17;;;;;;;18.93;14.57;101118.06;5009051;28;20026;-68
2021/04/12 10:41:12;;;;;;;4.85;2.92;;;;;;;19.42;14.37;101168.66;5009904;28;20034;-69
2021/04/12 10:43:53;;;;;;;4.78;3.08;;;;;;;19.34;14.52;101181.13;5009537;28;20490;-72
2021/04/12 10:46:30;;;;;;;5.85;2.60;;;;;;;19.34;14.53;101197.41;5010074;28;20130;-68
2021/04/12 10:49:15;;;;;;;9.82;3.00;;;;;;;19.26;14.59;101215.44;4998170;28;20561;-70
2021/04/12 10:51:52;;;;;;;3.50;2.75;;;;;;;19.20;14.63;101177.03;4990024;28;20038;-66
2021/04/12 10:54:23;;;;;;;8.13;2.70;;;;;;;19.24;14.91;101184.88;5007605;28;20076;-68
2021/04/12 10:56:57;;;;;;;8.68;3.30;;;;;;;19.04;15.05;101171.34;5009847;28;20029;-70
2021/04/12 10:59:41;;;;;;;13.73;3.50;;;;;;;19.04;15.14;101165.91;5010000;28;20596;-65
2021/04/12 11:02:21;;;;;;;10.18;3.15;;;;;;;19.06;15.29;101164.78;5009893;28;20044;-68
2021/04/12 11:04:59;;;;;;;12.80;3.22;;;;;;;19.00;15.27;101146.34;5009820;28;20045;-67
2021/04/12 11:07:48;;;;;;;11.05;3.28;;;;;;;19.20;15.41;101171.59;5008365;28;20034;-67
2021/04/12 11:10:25;;;;;;;5.57;3.50;;;;;;;19.07;15.57;101171.91;5009394;28;20064;-71
2021/04/12 11:13:08;;;;;;;9.30;3.63;;;;;;;19.01;16.10;101134.47;5000958;28;20038;-61
2021/04/12 11:15:38;;;;;;;10.00;3.97;;;;;;;19.27;16.40;101146.56;5008062;28;20042;-69
2021/04/12 11:18:22;;;;;;;7.03;3.10;;;;;;;19.23;16.10;101126.97;5006209;28;20096;-68
2021/04/12 11:21:06;;;;;;;8.73;3.08;;;;;;;19.34;16.33;101145.81;5009832;28;20038;-65
2021/04/12 11:23:40;;;;;;;10.70;3.83;;;;;;;18.99;16.82;101105.78;5009239;28;20541;-67
2021/04/12 11:26:26;;;;;;;13.60;3.83;;;;;;;19.34;17.18;101134.09;5009174;28;20064;-65
2021/04/12 11:29:01;;;;;;;12.63;3.33;;;;;;;19.34;16.90;101126.81;5009684;28;20074;-65
2021/04/12 11:31:56;;;;;;;12.57;4.03;;;;;;;19.46;16.93;101134.75;4990160;28;20058;-66
2021/04/12 11:34:37;;;;;;;9.82;3.53;;;;;;;18.70;17.37;101037.00;4992012;28;20064;-65
2021/04/12 11:37:16;;;;;;;8.57;3.13;;;;;;;19.38;17.73;101134.66;4993457;28;20517;-66
2021/04/12 11:39:51;;;;;;;9.38;3.30;;;;;;;19.28;17.89;101126.53;4993216;28;20096;-65
2021/04/12 11:42:19;;;;;;;11.15;3.13;;;;;;;19.21;18.29;101139.84;4993601;28;20447;-65
2021/04/12 11:44:47;;;;;;;13.02;3.72;;;;;;;18.96;18.40;101122.34;4993473;28;20046;-65
2021/04/12 11:47:22;;;;;;;12.98;3.15;;;;;;;18.99;18.31;101138.38;4993028;28;20034;-67
2021/04/12 11:50:09;;;;;;;13.48;3.50;;;;;;;18.91;18.20;101122.78;4993754;28;20117;-66
2021/04/12 11:52:57;;;;;;;10.77;3.65;;;;;;;18.33;18.22;101035.97;5002086;28;20421;-65
2021/04/12 11:55:30;;;;;;;10.38;3.20;;;;;;;18.70;18.12;101102.13;5012687;28;20026;-66
2021/04/12 11:58:18;;;;;;;10.05;3.53;;;;;;;18.77;18.18;101084.25;5012661;28;20117;-67
2021/04/12 12:00:59;;;;;;;10.38;3.55;;;;;;;18.42;18.68;101020.66;5011280;28;20061;-66
2021/04/12 12:04:01;;;;;;;11.50;3.67;;;;;;;18.74;18.95;101076.41;5010414;28;20041;-66
2021/04/12 12:06:31;;;;;;;25.75;4.38;;;;;;;18.72;19.21;101061.28;5000033;28;20048;-68
2021/04/12 12:09:23;;;;;;;10.73;3.80;;;;;;;18.90;20.16;101072.22;5011376;28;20500;-69
2021/04/12 12:12:03;;;;;;;12.88;3.53;;;;;;;18.56;20.50;101005.78;5008987;28;20060;-66
2021/04/12 12:14:42;;;;;;;20.42;3.70;;;;;;;19.10;19.77;101061.34;5010033;28;20379;-70
2021/04/12 12:17:18;;;;;;;13.15;3.70;;;;;;;19.22;19.64;101057.41;5010716;28;20041;-62
2021/04/12 12:19:53;;;;;;;9.00;3.55;;;;;;;19.17;19.56;101054.28;5012092;28;20045;-63
2021/04/12 12:22:49;;;;;;;13.32;4.00;;;;;;;19.10;19.55;101045.03;5012967;28;20050;-75
2021/04/12 12:25:33;;;;;;;;;;;;;;;19.20;19.57;101040.41;5011649;28;20041;-74
2021/04/12 12:28:37;;;;;;;13.90;3.72;;;;;;;18.85;20.30;101067.22;5012063;28;19960;-72
2021/04/12 12:31:31;;;;;;;18.27;4.10;;;;;;;18.33;20.67;100970.06;5011593;28;20041;-76
2021/04/12 12:34:08;;;;;;;17.63;4.10;;;;;;;18.63;21.23;101041.31;5011964;28;20041;-73
2021/04/12 12:36:48;;;;;;;9.05;2.88;;;;;;;18.57;21.66;101053.59;5011025;28;20498;-72
2021/04/12 12:39:29;;;;;;;13.48;3.90;;;;;;;18.51;22.15;101041.47;5011274;28;20045;-71
2021/04/12 12:42:01;;;;;;;18.80;4.22;;;;;;;18.57;22.27;101052.75;5011917;28;20030;-73
2021/04/12 12:44:29;;;;;;;13.10;3.70;;;;;;;18.27;22.37;100993.16;5011928;28;20088;-73